Time;durP1;ratioP1;P1;durP2;ratioP2;P2;SDS_P1;SDS_P2;PMS_P1;PMS_P2;Temp;Humidity;BMP_temperature;BMP_pressure;BME280_temperature;BME280_humidity;BME280_pressure;Samples;Min_cycle;Max_cycle;Signal;HPM_P1;HPM_P2
2023/07/09 00:08:27;;;;;;;4.50;4.10;;;;;;;17.89;53.04;99860.23;431758;1271;138372;-72
2023/07/09 00:18:30;;;;;;;5.70;4.50;;;;;;;17.58;53.87;99864.98;431601;1268;139007;-71
2023/07/09 00:28:33;;;;;;;5.60;4.60;;;;;;;17.58;53.57;99859.10;431259;1268;138615;-70
2023/07/09 00:38:38;;;;;;;4.80;4.40;;;;;;;17.35;55.12;99856.36;431066;1270;139604;-70
2023/07/09 00:48:42;;;;;;;5.80;4.70;;;;;;;16.90;56.23;99851.59;431135;1268;138666;-69
2023/07/09 00:58:47;;;;;;;5.40;4.70;;;;;;;16.46;57.44;99853.89;431380;1270;138981;-70
2023/07/09 01:08:53;;;;;;;6.60;4.10;;;;;;;16.17;58.63;99858.56;431444;1268;140205;-70
2023/07/09 01:18:56;;;;;;;5.70;4.90;;;;;;;15.92;59.70;99859.90;431302;1268;139017;-69
2023/07/09 01:28:59;;;;;;;5.90;4.80;;;;;;;15.67;60.53;99863.66;431495;1270;139167;-70
2023/07/09 01:39:02;;;;;;;5.80;3.90;;;;;;;15.47;61.29;99873.51;431859;1270;139357;-71
2023/07/09 01:49:07;;;;;;;4.60;4.10;;;;;;;15.32;61.88;99874.18;431854;1268;139803;-72
2023/07/09 01:59:11;;;;;;;5.00;4.60;;;;;;;15.29;61.89;99873.70;432087;1270;139580;-69
2023/07/09 02:09:14;;;;;;;5.20;4.70;;;;;;;15.54;61.44;99875.42;431793;1270;139195;-72
2023/07/09 02:19:17;;;;;;;4.70;3.50;;;;;;;15.89;61.10;99879.04;431811;1270;141212;-73
2023/07/09 02:29:23;;;;;;;5.40;4.10;;;;;;;16.17;60.64;99883.11;431583;1270;139257;-70
2023/07/09 02:39:27;;;;;;;3.90;3.50;;;;;;;16.30;60.36;99886.84;431878;1273;139010;-70
2023/07/09 02:49:30;;;;;;;4.30;3.60;;;;;;;16.47;60.13;99891.61;432215;1270;138840;-71
2023/07/09 02:59:33;;;;;;;3.90;3.60;;;;;;;16.57;60.07;99889.14;432031;1271;138792;-70
2023/07/09 03:09:36;;;;;;;5.20;3.50;;;;;;;16.99;59.89;99892.34;431899;1270;139314;-71
2023/07/09 03:19:39;;;;;;;3.60;3.30;;;;;;;19.39;57.97;99895.09;431526;1272;139191;-72
2023/07/09 03:29:42;;;;;;;4.10;3.30;;;;;;;21.75;53.16;99900.42;431650;1270;139024;-72
2023/07/09 03:39:46;;;;;;;3.80;3.00;;;;;;;21.46;51.06;99909.43;431652;1272;138601;-72
2023/07/09 03:49:49;;;;;;;3.90;2.90;;;;;;;20.79;50.87;99914.55;431104;1272;138936;-71
2023/07/09 03:59:52;;;;;;;4.40;2.70;;;;;;;20.22;51.53;99914.51;431152;1274;138937;-71
2023/07/09 04:09:55;;;;;;;4.00;3.00;;;;;;;22.64;50.53;99912.56;431361;1273;138300;-72
2023/07/09 04:19:58;;;;;;;4.70;3.00;;;;;;;28.33;43.56;99913.36;431727;1273;139027;-70
2023/07/09 04:30:02;;;;;;;3.40;2.60;;;;;;;32.43;37.64;99915.16;430792;1270;140228;-71
2023/07/09 04:40:11;;;;;;;3.30;2.50;;;;;;;35.39;32.62;99921.74;431752;1267;138442;-72
2023/07/09 04:50:14;;;;;;;3.00;2.40;;;;;;;37.63;28.86;99922.92;431542;1267;138845;-71
2023/07/09 05:00:18;;;;;;;2.20;1.80;;;;;;;38.02;26.20;99928.09;431013;1267;138541;-72
2023/07/09 05:10:21;;;;;;;3.10;2.10;;;;;;;39.99;24.98;99925.21;431143;1272;138833;-72
2023/07/09 05:20:24;;;;;;;3.10;1.80;;;;;;;42.78;22.44;99924.24;430946;1268;139968;-72
2023/07/09 05:30:27;;;;;;;3.20;2.00;;;;;;;43.88;20.33;99928.46;430856;1271;138530;-74
2023/07/09 05:40:31;;;;;;;1.60;1.50;;;;;;;44.63;19.65;99933.55;431126;1271;138685;-74
2023/07/09 05:50:35;;;;;;;2.50;2.30;;;;;;;47.05;18.24;99931.27;431747;1273;138552;-77
2023/07/09 06:00:41;;;;;;;2.70;2.30;;;;;;;48.65;16.85;99933.83;432082;1267;138367;-76
2023/07/09 06:10:55;;;;;;;1.50;1.40;;;;;;;49.89;16.17;99932.83;433186;1271;138532;-75
2023/07/09 06:21:00;;;;;;;3.20;2.60;;;;;;;51.08;15.10;99935.55;432124;1271;138359;-73
2023/07/09 06:31:03;;;;;;;3.40;2.10;;;;;;;51.84;14.29;99939.81;431178;1267;138539;-73
2023/07/09 06:41:06;;;;;;;4.90;2.90;;;;;;;53.61;13.20;99941.43;432263;1270;138455;-74
2023/07/09 06:51:09;;;;;;;2.90;2.60;;;;;;;53.91;12.69;99937.27;431659;1273;138377;-73
2023/07/09 07:01:13;;;;;;;3.20;3.00;;;;;;;55.12;12.29;99935.52;431301;1270;139574;-73
2023/07/09 07:11:16;;;;;;;3.30;3.20;;;;;;;55.43;11.97;99944.98;431642;1267;138598;-74
2023/07/09 07:21:19;;;;;;;5.20;4.80;;;;;;;55.61;11.31;99958.81;431618;1267;138425;-74
2023/07/09 07:31:22;;;;;;;4.70;4.50;;;;;;;55.05;11.42;99962.87;431764;1272;284080;-75
2023/07/09 07:41:26;;;;;;;6.50;5.00;;;;;;;56.02;11.43;99954.92;432036;1267;139019;-75
2023/07/09 07:51:29;;;;;;;2.60;2.50;;;;;;;56.16;11.05;99952.99;431677;1270;139749;-73
2023/07/09 08:01:34;;;;;;;2.30;2.00;;;;;;;53.05;11.45;99951.69;431895;1267;138609;-72
2023/07/09 08:11:38;;;;;;;3.20;2.60;;;;;;;44.56;14.64;99945.16;431772;1267;139273;-72
2023/07/09 08:21:41;;;;;;;2.70;2.30;;;;;;;39.21;17.81;99946.77;431917;1270;138400;-72
2023/07/09 08:31:44;;;;;;;2.70;2.40;;;;;;;36.35;20.58;99955.98;431508;1270;138504;-73
2023/07/09 08:41:52;;;;;;;2.60;1.80;;;;;;;34.87;22.33;99951.31;431926;1267;138487;-73
2023/07/09 08:52:01;;;;;;;3.00;2.20;;;;;;;34.07;23.31;99954.97;431100;1267;138387;-71
2023/07/09 09:02:16;;;;;;;2.30;1.80;;;;;;;33.02;23.82;99957.45;431623;1267;138820;-68
2023/07/09 09:12:26;;;;;;;1.90;1.80;;;;;;;32.26;25.17;99956.35;431355;1268;139319;-68
2023/07/09 09:22:43;;;;;;;3.50;2.00;;;;;;;31.77;25.94;99953.83;432232;1267;138621;-69
2023/07/09 09:32:52;;;;;;;1.80;1.70;;;;;;;31.22;26.34;99954.33;431839;1270;139105;-68
2023/07/09 09:42:59;;;;;;;2.10;1.60;;;;;;;30.46;26.73;99957.50;432532;1267;138551;-69
2023/07/09 09:53:02;;;;;;;2.60;1.80;;;;;;;30.06;27.15;99956.19;432020;1267;138452;-71
2023/07/09 10:03:06;;;;;;;2.90;1.70;;;;;;;29.63;27.72;99956.33;431450;1267;139144;-70
2023/07/09 10:13:22;;;;;;;2.20;1.80;;;;;;;29.27;28.25;99957.38;430864;1270;139284;-71
2023/07/09 10:23:30;;;;;;;4.10;2.10;;;;;;;28.81;29.00;99955.55;431319;1268;139467;-69
2023/07/09 10:33:40;;;;;;;2.20;2.00;;;;;;;28.20;29.59;99958.52;432315;1267;138564;-69
2023/07/09 10:43:48;;;;;;;3.00;2.40;;;;;;;27.87;29.56;99953.15;431461;1270;139412;-69
2023/07/09 10:53:56;;;;;;;2.20;1.70;;;;;;;27.67;29.67;99953.17;431462;1267;140121;-67
2023/07/09 11:04:04;;;;;;;2.70;1.80;;;;;;;27.57;29.65;99947.25;431419;1267;138346;-70
2023/07/09 11:14:17;;;;;;;2.20;2.00;;;;;;;27.67;29.54;99946.21;431037;1267;139815;-71
2023/07/09 11:24:31;;;;;;;2.10;1.70;;;;;;;27.61;28.89;99946.67;433411;1267;141258;-69
2023/07/09 11:34:34;;;;;;;3.20;1.70;;;;;;;27.69;28.36;99946.38;431353;1270;139549;-69
2023/07/09 11:44:47;;;;;;;4.40;1.70;;;;;;;27.59;27.87;99950.11;430887;1269;139181;-70
2023/07/09 11:54:51;;;;;;;5.30;2.10;;;;;;;27.71;27.72;99939.31;432548;1267;139661;-69
2023/07/09 12:04:54;;;;;;;1.90;1.80;;;;;;;27.71;27.45;99931.89;431713;1270;139145;-69
2023/07/09 12:14:57;;;;;;;3.90;1.70;;;;;;;27.67;27.81;99929.77;431764;1267;139248;-68
2023/07/09 12:25:00;;;;;;;4.40;1.70;;;;;;;27.59;27.98;99922.43;431783;1270;139298;-68
2023/07/09 12:35:03;;;;;;;2.10;1.60;;;;;;;27.45;28.12;99904.20;431356;1267;139293;-68
2023/07/09 12:45:15;;;;;;;1.40;1.10;;;;;;;27.34;28.52;99898.15;432202;1267;140579;-68
2023/07/09 12:55:25;;;;;;;1.60;1.30;;;;;;;27.48;28.86;99894.09;431966;1267;141002;-68
2023/07/09 13:05:28;;;;;;;3.50;1.70;;;;;;;27.47;28.73;99888.05;431916;1271;139631;-68
2023/07/09 13:15:38;;;;;;;2.30;1.70;;;;;;;27.40;28.27;99888.58;431516;1268;141209;-69
2023/07/09 13:25:41;;;;;;;1.90;1.70;;;;;;;27.40;28.01;99884.35;431033;1270;141698;-69
2023/07/09 13:35:53;;;;;;;2.70;1.50;;;;;;;27.24;27.77;99884.59;432263;1267;138900;-69
2023/07/09 13:45:57;;;;;;;0.80;0.80;;;;;;;27.19;27.87;99883.86;431738;1268;138668;-71
2023/07/09 13:56:00;;;;;;;3.80;1.50;;;;;;;27.17;27.78;99878.50;432177;1267;140783;-67
2023/07/09 14:06:04;;;;;;;1.20;0.90;;;;;;;27.19;27.28;99875.02;431215;1270;139296;-67
2023/07/09 14:16:09;;;;;;;1.50;1.20;;;;;;;27.24;26.95;99866.80;431636;1267;138489;-66
2023/07/09 14:26:12;;;;;;;1.40;1.10;;;;;;;27.33;26.67;99861.56;431638;1270;139158;-67
2023/07/09 14:36:16;;;;;;;1.40;1.10;;;;;;;27.33;26.25;99857.25;431526;1268;138623;-68
2023/07/09 14:46:19;;;;;;;1.20;1.10;;;;;;;27.27;25.74;99856.02;431457;1268;138489;-68
2023/07/09 14:56:22;;;;;;;1.10;0.80;;;;;;;27.18;25.72;99852.02;431728;1268;138704;-67
2023/07/09 15:06:25;;;;;;;1.60;0.60;;;;;;;27.18;25.88;99850.65;431214;1270;139519;-68
2023/07/09 15:16:28;;;;;;;1.30;0.50;;;;;;;27.14;25.65;99847.98;431585;1267;139598;-67
2023/07/09 15:26:32;;;;;;;1.90;1.70;;;;;;;27.11;26.10;99844.86;431461;1268;138496;-67
2023/07/09 15:36:35;;;;;;;2.00;0.60;;;;;;;27.17;26.47;99837.38;431554;1268;138680;-68
2023/07/09 15:46:40;;;;;;;0.90;0.70;;;;;;;27.14;26.60;99830.90;431298;1270;138502;-67
2023/07/09 15:56:44;;;;;;;0.60;0.60;;;;;;;27.06;26.46;99822.37;431625;1268;138649;-68
2023/07/09 16:06:47;;;;;;;0.90;0.90;;;;;;;27.01;26.62;99824.09;433359;1270;140444;-67
2023/07/09 16:16:52;;;;;;;1.80;0.90;;;;;;;26.96;26.90;99827.47;431096;1270;139535;-67
2023/07/09 16:26:55;;;;;;;0.90;0.90;;;;;;;26.96;27.07;99827.64;431473;1267;139302;-68
2023/07/09 16:37:00;;;;;;;1.80;0.90;;;;;;;26.93;27.35;99820.67;432474;1268;140386;-66
2023/07/09 16:47:13;;;;;;;2.80;0.60;;;;;;;26.84;27.55;99813.59;431240;1270;140735;-68
2023/07/09 16:57:19;;;;;;;0.70;0.60;;;;;;;27.16;27.16;99809.04;431216;1270;138462;-67
2023/07/09 17:07:22;;;;;;;3.30;0.60;;;;;;;26.96;27.03;99806.28;431713;1268;139521;-67
2023/07/09 17:17:26;;;;;;;2.10;1.00;;;;;;;26.67;28.05;99817.39;431819;1268;140980;-66
2023/07/09 17:27:31;;;;;;;1.20;0.60;;;;;;;26.40;28.41;99821.09;431474;1270;140660;-67
2023/07/09 17:37:35;;;;;;;1.00;0.80;;;;;;;26.18;28.75;99828.70;431556;1268;139435;-67
2023/07/09 17:47:38;;;;;;;1.90;0.70;;;;;;;25.99;29.10;99830.44;431114;1268;138547;-67
2023/07/09 17:57:43;;;;;;;2.30;0.70;;;;;;;26.00;29.31;99825.98;431810;1267;139450;-66
2023/07/09 18:07:46;;;;;;;1.10;0.80;;;;;;;26.38;29.07;99826.58;431038;1270;138932;-67
2023/07/09 18:17:49;;;;;;;1.00;0.90;;;;;;;25.92;29.64;99830.52;431000;1268;139448;-67
2023/07/09 18:27:55;;;;;;;2.80;0.80;;;;;;;25.49;30.05;99826.11;431117;1270;139065;-68
2023/07/09 18:38:00;;;;;;;0.90;0.90;;;;;;;25.04;30.74;99825.30;431057;1268;140554;-69
2023/07/09 18:48:10;;;;;;;1.90;1.10;;;;;;;24.63;31.34;99828.55;431863;1268;138740;-68
2023/07/09 18:58:19;;;;;;;1.30;1.20;;;;;;;24.23;32.11;99832.58;431363;1268;139540;-67
2023/07/09 19:08:24;;;;;;;2.70;1.30;;;;;;;23.83;32.88;99840.77;431156;1268;138812;-68
2023/07/09 19:18:33;;;;;;;2.30;1.60;;;;;;;23.52;33.55;99838.09;431769;1270;138696;-68
2023/07/09 19:28:46;;;;;;;5.00;2.70;;;;;;;23.31;33.79;99845.67;422749;1294;600947;-69
2023/07/09 19:38:54;;;;;;;4.60;1.60;;;;;;;23.01;34.42;99850.75;432698;1266;143361;-69
2023/07/09 19:49:00;;;;;;;1.90;1.50;;;;;;;22.70;35.19;99852.42;435738;1254;138216;-69
2023/07/09 19:59:06;;;;;;;2.20;1.30;;;;;;;22.45;35.27;99857.88;435749;1256;137845;-68
2023/07/09 20:09:16;;;;;;;2.50;1.70;;;;;;;22.22;35.41;99863.87;435680;1256;138892;-68
2023/07/09 20:19:21;;;;;;;3.10;1.20;;;;;;;22.07;35.77;99870.73;435948;1253;138351;-67
2023/07/09 20:29:28;;;;;;;1.20;1.10;;;;;;;21.85;36.16;99874.58;435470;1256;140736;-67
2023/07/09 20:39:34;;;;;;;2.70;1.70;;;;;;;21.63;36.90;99880.61;435991;1256;137385;-71
2023/07/09 20:49:42;;;;;;;3.90;1.50;;;;;;;21.43;37.38;99891.77;436484;1253;138042;-67
2023/07/09 20:59:48;;;;;;;2.30;1.60;;;;;;;21.20;37.94;99890.88;436761;1253;138343;-68
2023/07/09 21:09:54;;;;;;;2.20;1.80;;;;;;;20.89;38.81;99892.59;436463;1253;138134;-68
2023/07/09 21:20:00;;;;;;;3.00;1.90;;;;;;;20.57;40.18;99896.80;436106;1251;138601;-66
2023/07/09 21:30:08;;;;;;;10.90;2.40;;;;;;;20.24;41.33;99902.42;436083;1254;137918;-67
2023/07/09 21:40:26;;;;;;;4.70;2.30;;;;;;;19.85;43.35;99904.80;453050;1250;139796;-67
2023/07/09 21:50:33;;;;;;;3.50;2.70;;;;;;;19.43;44.65;99915.61;439210;1253;138716;-67
2023/07/09 22:00:38;;;;;;;6.50;2.50;;;;;;;19.03;45.92;99923.81;436914;1253;137782;-68
2023/07/09 22:11:00;;;;;;;2.20;1.40;;;;;;;18.61;47.01;99916.64;436643;1253;138116;-67
2023/07/09 22:21:09;;;;;;;5.20;2.20;;;;;;;18.43;47.16;99922.77;436555;1254;138679;-68
2023/07/09 22:31:15;;;;;;;3.20;2.40;;;;;;;18.24;48.04;99925.02;436786;1251;138231;-68
2023/07/09 22:41:20;;;;;;;4.00;3.00;;;;;;;17.89;49.32;99926.46;436637;1253;138012;-67
2023/07/09 22:51:26;;;;;;;5.10;2.00;;;;;;;17.67;50.06;99921.50;436343;1253;138010;-67
2023/07/09 23:01:33;;;;;;;4.80;2.60;;;;;;;17.43;50.86;99918.35;436342;1253;138130;-67
2023/07/09 23:11:41;;;;;;;5.20;2.60;;;;;;;17.15;52.12;99925.48;436729;1251;138716;-67
2023/07/09 23:21:47;;;;;;;7.70;2.60;;;;;;;16.89;53.20;99928.56;437540;1250;137728;-67
2023/07/09 23:31:54;;;;;;;4.20;2.80;;;;;;;16.64;54.25;99923.09;436716;1253;138683;-67
2023/07/09 23:41:59;;;;;;;4.90;3.10;;;;;;;16.42;55.30;99918.84;436484;1251;139459;-68
2023/07/09 23:52:10;;;;;;;10.50;3.20;;;;;;;16.26;56.14;99914.73;436859;1253;138454;-68
